Time;durP1;ratioP1;P1;durP2;ratioP2;P2;SDS_P1;SDS_P2;PMS_P1;PMS_P2;Temp;Humidity;BMP_temperature;BMP_pressure;BME280_temperature;BME280_humidity;BME280_pressure;Samples;Min_cycle;Max_cycle;Signal;HPM_P1;HPM_P2
2022/11/17 00:01:19;;;;;;;3.13;1.65;;;12.20;99.90;;;;;;4949005;28;20212;-77
2022/11/17 00:03:46;;;;;;;3.00;1.80;;;12.30;99.90;;;;;;4970332;28;20221;-77
2022/11/17 00:06:14;;;;;;;3.85;1.73;;;12.30;99.90;;;;;;4970437;28;20203;-77
2022/11/17 00:08:44;;;;;;;3.17;2.05;;;12.20;99.90;;;;;;4958153;28;20229;-77
2022/11/17 00:11:11;;;;;;;3.78;1.73;;;12.20;99.90;;;;;;4964503;28;20201;-77
2022/11/17 00:16:28;;;;;;;4.20;1.85;;;12.00;99.90;;;;;;4972035;28;20198;-77
2022/11/17 00:21:40;;;;;;;3.07;1.47;;;11.90;99.90;;;;;;4969772;28;20193;-77
2022/11/17 00:24:08;;;;;;;4.87;1.80;;;11.90;99.90;;;;;;4972469;28;20221;-77
2022/11/17 00:27:00;;;;;;;3.83;1.90;;;11.90;99.90;;;;;;4949458;28;20681;-77
2022/11/17 00:29:27;;;;;;;6.00;2.00;;;11.90;99.90;;;;;;5016189;28;20225;-77
2022/11/17 00:34:41;;;;;;;3.07;1.60;;;11.80;99.90;;;;;;4948401;28;20200;-77
2022/11/17 00:37:09;;;;;;;3.87;1.60;;;11.80;99.90;;;;;;4964523;28;20680;-75
2022/11/17 00:39:37;;;;;;;5.27;1.97;;;11.80;99.90;;;;;;4953460;28;20225;-75
2022/11/17 00:42:05;;;;;;;3.30;1.70;;;11.90;99.90;;;;;;4971087;28;20197;-75
2022/11/17 00:44:32;;;;;;;4.63;1.75;;;11.80;99.90;;;;;;4967622;28;20548;-76
2022/11/17 00:47:01;;;;;;;3.93;1.77;;;11.80;99.90;;;;;;4984665;28;20194;-75
2022/11/17 00:49:29;;;;;;;6.23;2.20;;;11.70;99.90;;;;;;4949567;28;20217;-75
2022/11/17 00:51:56;;;;;;;2.70;1.80;;;11.80;99.90;;;;;;4948710;28;20198;-76
2022/11/17 00:54:24;;;;;;;3.83;1.90;;;11.80;99.90;;;;;;4950729;28;20194;-76
2022/11/17 00:56:52;;;;;;;3.30;1.90;;;11.80;99.90;;;;;;4969408;28;20217;-75
2022/11/17 00:59:19;;;;;;;2.20;1.80;;;11.80;99.90;;;;;;4966377;28;20229;-76
2022/11/17 01:01:47;;;;;;;2.70;1.97;;;11.70;99.90;;;;;;4960753;28;20666;-75
2022/11/17 01:04:16;;;;;;;2.53;1.57;;;11.70;99.90;;;;;;4954336;28;20224;-76
2022/11/17 01:06:45;;;;;;;2.80;1.70;;;11.70;99.90;;;;;;4988167;28;20663;-75
2022/11/17 01:09:15;;;;;;;3.50;1.50;;;11.70;99.90;;;;;;4962466;28;20583;-75
2022/11/17 01:11:44;;;;;;;3.63;2.07;;;11.70;99.90;;;;;;4961054;28;20194;-75
2022/11/17 01:14:13;;;;;;;2.47;1.80;;;11.90;99.90;;;;;;4956954;28;20198;-76
2022/11/17 01:16:41;;;;;;;6.17;1.83;;;11.90;99.90;;;;;;4969538;28;20220;-75
2022/11/17 01:19:10;;;;;;;2.70;1.70;;;11.80;99.90;;;;;;4972578;28;20222;-75
2022/11/17 01:21:39;;;;;;;4.00;1.73;;;11.90;99.90;;;;;;4993448;28;20205;-75
2022/11/17 01:24:07;;;;;;;5.00;1.42;;;11.90;99.90;;;;;;4955874;28;20205;-76
2022/11/17 01:26:36;;;;;;;4.53;1.90;;;11.90;99.90;;;;;;4958123;28;20202;-75
2022/11/17 01:29:05;;;;;;;4.22;2.42;;;11.80;99.90;;;;;;4950619;28;20233;-75
2022/11/17 01:31:35;;;;;;;4.10;1.57;;;11.90;99.90;;;;;;4962119;28;20202;-75
2022/11/17 01:34:02;;;;;;;3.72;1.65;;;11.80;99.90;;;;;;4967248;28;20201;-75
2022/11/17 01:37:17;;;;;;;5.13;1.93;;;11.80;99.90;;;;;;4987702;28;20208;-75
2022/11/17 01:39:23;;;;;;;3.00;1.60;;;11.70;99.90;;;;;;4970351;28;20221;-75
2022/11/17 01:41:50;;;;;;;2.10;1.60;;;11.70;99.90;;;;;;4955523;28;20272;-76
2022/11/17 01:44:51;;;;;;;4.07;2.03;;;11.70;99.90;;;;;;4987043;28;20211;-75
2022/11/17 01:47:42;;;;;;;2.73;1.60;;;11.60;99.90;;;;;;4953967;28;20209;-75
2022/11/17 01:50:19;;;;;;;1.70;1.60;;;11.60;99.90;;;;;;5034888;28;20230;-75
2022/11/17 01:52:49;;;;;;;1.80;1.40;;;11.50;99.90;;;;;;4961882;28;20190;-76
2022/11/17 01:55:20;;;;;;;3.50;1.50;;;11.50;99.90;;;;;;4955394;28;20206;-76
2022/11/17 01:57:53;;;;;;;2.63;2.40;;;11.40;99.90;;;;;;4963380;28;20202;-75
2022/11/17 02:00:21;;;;;;;4.27;1.83;;;11.40;99.90;;;;;;4950382;28;20225;-75
2022/11/17 02:02:50;;;;;;;4.53;1.83;;;11.40;99.90;;;;;;4986564;28;20233;-76
2022/11/17 02:05:30;;;;;;;2.37;1.90;;;11.30;99.90;;;;;;4957737;28;20201;-75
2022/11/17 02:08:00;;;;;;;5.07;1.47;;;11.40;99.90;;;;;;4969346;28;20198;-75
2022/11/17 02:10:31;;;;;;;4.27;1.57;;;11.30;99.90;;;;;;4954574;28;20586;-76
2022/11/17 02:13:33;;;;;;;2.77;1.40;;;11.30;99.90;;;;;;4968216;28;20532;-75
2022/11/17 02:16:01;;;;;;;3.37;1.20;;;11.30;99.90;;;;;;4966033;28;20220;-75
2022/11/17 02:18:28;;;;;;;2.37;1.53;;;11.30;99.90;;;;;;4957700;28;20558;-75
2022/11/17 02:21:21;;;;;;;1.97;1.07;;;11.30;99.90;;;;;;4952913;28;20228;-76
2022/11/17 02:24:16;;;;;;;3.53;1.27;;;11.30;99.90;;;;;;5028527;28;20221;-75
2022/11/17 02:27:20;;;;;;;3.37;1.37;;;11.40;99.90;;;;;;5025160;28;20206;-75
2022/11/17 02:29:58;;;;;;;3.33;1.20;;;11.30;99.90;;;;;;4967462;28;20232;-75
2022/11/17 02:32:32;;;;;;;1.80;1.10;;;11.30;99.90;;;;;;4971424;28;20197;-75
2022/11/17 02:35:14;;;;;;;3.00;1.80;;;11.30;99.90;;;;;;4993452;28;20202;-76
2022/11/17 02:37:51;;;;;;;1.87;1.10;;;11.30;99.90;;;;;;4952665;28;20202;-75
2022/11/17 02:40:23;;;;;;;2.27;1.40;;;11.20;99.90;;;;;;4953906;28;20300;-75
2022/11/17 02:45:48;;;;;;;2.83;1.13;;;11.30;99.90;;;;;;4947143;29;20182;-75
2022/11/17 02:48:20;;;;;;;4.47;1.50;;;11.30;99.90;;;;;;4948057;28;20647;-75
2022/11/17 02:50:50;;;;;;;2.10;1.30;;;11.30;99.90;;;;;;4950700;28;20225;-75
2022/11/17 02:53:19;;;;;;;1.60;1.30;;;11.20;99.90;;;;;;4979143;28;20186;-76
2022/11/17 02:55:51;;;;;;;2.03;1.47;;;11.10;99.90;;;;;;4977200;28;20201;-75
2022/11/17 02:58:19;;;;;;;3.60;1.30;;;11.10;99.90;;;;;;4966237;28;20201;-75
2022/11/17 03:00:58;;;;;;;3.67;1.50;;;11.10;99.90;;;;;;4956593;28;20222;-75
2022/11/17 03:03:43;;;;;;;1.93;1.20;;;11.10;99.90;;;;;;4980556;28;20221;-75
2022/11/17 03:06:19;;;;;;;2.43;1.20;;;11.10;99.90;;;;;;4971161;28;20213;-75
2022/11/17 03:08:52;;;;;;;2.30;1.50;;;11.10;99.90;;;;;;4954817;28;20197;-75
2022/11/17 03:11:27;;;;;;;1.60;1.30;;;11.20;99.90;;;;;;4954402;28;20190;-75
2022/11/17 03:13:59;;;;;;;2.60;1.20;;;11.20;99.90;;;;;;4970170;28;20571;-75
2022/11/17 03:16:35;;;;;;;1.93;1.10;;;11.10;99.90;;;;;;4954823;28;20203;-75
2022/11/17 03:19:08;;;;;;;1.93;1.13;;;11.20;99.90;;;;;;4976990;28;20217;-75
2022/11/17 03:21:41;;;;;;;2.77;1.20;;;11.20;99.90;;;;;;4946677;28;20221;-75
2022/11/17 03:24:16;;;;;;;2.27;1.30;;;11.10;99.90;;;;;;4967025;28;20538;-75
2022/11/17 03:26:48;;;;;;;2.63;1.50;;;11.10;99.90;;;;;;4947486;28;20205;-75
2022/11/17 03:29:19;;;;;;;1.37;1.10;;;11.10;99.90;;;;;;4952530;28;20574;-75
2022/11/17 03:31:52;;;;;;;1.60;1.10;;;11.10;99.90;;;;;;4948353;28;20209;-75
2022/11/17 03:34:23;;;;;;;1.93;0.90;;;11.10;99.90;;;;;;4963877;28;20206;-75
2022/11/17 03:36:55;;;;;;;2.03;0.90;;;11.10;99.90;;;;;;4979343;28;20206;-76
2022/11/17 03:39:28;;;;;;;1.30;0.83;;;11.00;99.90;;;;;;4956818;28;20233;-75
2022/11/17 03:42:00;;;;;;;2.33;0.97;;;11.00;99.90;;;;;;4963938;28;20201;-75
2022/11/17 03:44:31;;;;;;;1.73;0.87;;;11.10;99.90;;;;;;4961685;28;20225;-75
2022/11/17 03:47:04;;;;;;;1.10;0.93;;;11.00;99.90;;;;;;4955192;28;20216;-75
2022/11/17 03:49:40;;;;;;;1.70;1.10;;;11.00;99.90;;;;;;4959181;28;20742;-75
2022/11/17 03:52:08;;;;;;;1.30;1.20;;;11.00;99.90;;;;;;4970097;28;20202;-75
2022/11/17 03:54:36;;;;;;;2.90;1.17;;;10.90;99.90;;;;;;4965765;28;20197;-75
2022/11/17 03:57:08;;;;;;;1.10;0.70;;;10.90;99.90;;;;;;4974128;28;20205;-75
2022/11/17 03:59:42;;;;;;;1.10;1.00;;;10.90;99.90;;;;;;4948567;28;20213;-75
2022/11/17 04:02:16;;;;;;;1.40;0.90;;;11.00;99.90;;;;;;5031905;28;20212;-77
2022/11/17 04:07:29;;;;;;;1.77;0.97;;;10.90;99.90;;;;;;4979511;28;20212;-75
2022/11/17 04:09:56;;;;;;;0.70;0.70;;;10.90;99.90;;;;;;4962638;28;20232;-75
2022/11/17 04:17:56;;;;;;;2.37;1.40;;;11.00;99.90;;;;;;4951325;28;20230;-75
2022/11/17 04:20:23;;;;;;;2.83;1.23;;;11.00;99.90;;;;;;4971730;28;20229;-75
2022/11/17 04:23:05;;;;;;;2.20;1.20;;;11.00;99.90;;;;;;4957613;28;20202;-75
2022/11/17 04:28:37;;;;;;;1.70;1.10;;;10.90;99.90;;;;;;4955862;28;20193;-75
2022/11/17 04:31:08;;;;;;;2.00;1.07;;;10.90;99.90;;;;;;4947028;28;20197;-75
2022/11/17 04:33:38;;;;;;;2.50;0.80;;;11.00;99.90;;;;;;4993521;22;20206;-78
2022/11/17 04:36:06;;;;;;;1.47;1.00;;;11.00;99.90;;;;;;5066623;28;20659;-78
2022/11/17 04:38:34;;;;;;;2.57;1.10;;;11.00;99.90;;;;;;5065907;28;20205;-77
2022/11/17 04:43:53;;;;;;;1.50;0.90;;;11.00;99.90;;;;;;5064221;28;20221;-77
2022/11/17 04:46:22;;;;;;;2.03;1.20;;;11.00;99.90;;;;;;5060145;28;20202;-77
2022/11/17 04:48:52;;;;;;;2.77;1.10;;;11.10;99.90;;;;;;5062055;28;20196;-77
2022/11/17 04:51:21;;;;;;;1.80;0.83;;;11.10;99.90;;;;;;5067249;28;20193;-77
2022/11/17 04:53:49;;;;;;;1.00;0.70;;;11.20;99.90;;;;;;5061214;28;20209;-77
2022/11/17 04:56:18;;;;;;;2.73;1.00;;;11.20;99.90;;;;;;5066263;28;20201;-77
2022/11/17 04:58:45;;;;;;;2.03;1.00;;;11.20;99.90;;;;;;5068591;28;20194;-77
2022/11/17 05:01:13;;;;;;;1.10;0.97;;;11.20;99.90;;;;;;5068525;28;20201;-77
2022/11/17 05:03:42;;;;;;;1.97;0.87;;;11.20;99.90;;;;;;5067852;28;20190;-77
2022/11/17 05:06:31;;;;;;;2.57;1.13;;;11.20;99.90;;;;;;5069520;28;20200;-77
2022/11/17 05:09:01;;;;;;;2.47;1.33;;;11.20;99.90;;;;;;5066349;28;20209;-79
2022/11/17 05:14:17;;;;;;;0.77;0.63;;;11.30;99.90;;;;;;5079159;28;20216;-78
2022/11/17 05:19:31;;;;;;;1.43;0.90;;;11.20;99.90;;;;;;5066782;28;20197;-77
2022/11/17 05:22:00;;;;;;;1.90;0.97;;;11.20;99.90;;;;;;5066398;28;20197;-78
2022/11/17 05:24:27;;;;;;;1.30;1.20;;;11.20;99.90;;;;;;5069972;28;20216;-77
2022/11/17 05:26:55;;;;;;;1.63;0.80;;;11.20;99.90;;;;;;5062557;28;20682;-77
2022/11/17 05:29:27;;;;;;;1.03;0.93;;;11.20;99.90;;;;;;5069833;28;20208;-78
2022/11/17 05:31:55;;;;;;;1.57;1.03;;;11.20;99.90;;;;;;5069413;28;20202;-79
2022/11/17 05:34:22;;;;;;;1.20;1.10;;;11.20;99.90;;;;;;5086497;28;20240;-77
2022/11/17 05:36:49;;;;;;;2.50;1.17;;;11.10;99.90;;;;;;5067543;28;20193;-77
2022/11/17 05:39:18;;;;;;;1.93;1.00;;;11.10;99.90;;;;;;5067819;28;20206;-78
2022/11/17 05:41:46;;;;;;;1.83;1.10;;;11.10;99.90;;;;;;5080679;28;20197;-77
2022/11/17 05:44:13;;;;;;;1.37;1.03;;;11.10;99.90;;;;;;5069978;28;20264;-77
2022/11/17 05:46:59;;;;;;;1.67;0.83;;;11.20;99.90;;;;;;5069660;28;20193;-78
2022/11/17 05:49:27;;;;;;;1.53;0.90;;;11.20;99.90;;;;;;5069621;28;20573;-77
2022/11/17 05:51:54;;;;;;;2.40;1.00;;;11.20;99.90;;;;;;5073044;28;20212;-77
2022/11/17 05:54:23;;;;;;;2.17;1.13;;;11.20;99.90;;;;;;5067789;28;20236;-78
2022/11/17 05:56:55;;;;;;;2.73;1.20;;;11.30;99.90;;;;;;5070035;28;20210;-77
2022/11/17 05:59:26;;;;;;;1.17;1.07;;;11.40;99.90;;;;;;5068976;28;20198;-78
2022/11/17 06:01:58;;;;;;;2.43;1.27;;;11.40;99.90;;;;;;5075901;28;20193;-77
2022/11/17 06:04:25;;;;;;;1.80;1.20;;;11.40;99.90;;;;;;5067160;28;20225;-77
2022/11/17 06:06:57;;;;;;;2.20;1.40;;;11.40;99.90;;;;;;5067282;28;20205;-77
2022/11/17 06:09:28;;;;;;;3.53;1.30;;;11.40;99.90;;;;;;5065848;28;20193;-78
2022/11/17 06:11:55;;;;;;;3.10;1.30;;;11.20;99.90;;;;;;5054877;28;20186;-77
2022/11/17 06:14:25;;;;;;;2.50;1.20;;;11.10;99.90;;;;;;5064024;28;20547;-78
2022/11/17 06:16:56;;;;;;;1.80;1.30;;;11.10;99.90;;;;;;5068870;28;20193;-77
2022/11/17 06:19:27;;;;;;;3.10;1.50;;;11.10;99.90;;;;;;5069813;28;20216;-77
2022/11/17 06:21:55;;;;;;;1.33;1.20;;;11.10;99.90;;;;;;5075738;28;20565;-77
2022/11/17 06:24:43;;;;;;;3.00;1.70;;;11.10;99.90;;;;;;5065026;28;20553;-77
2022/11/17 06:27:12;;;;;;;3.83;1.40;;;11.10;99.90;;;;;;5071395;28;20190;-77
2022/11/17 06:29:39;;;;;;;2.37;1.33;;;11.10;99.90;;;;;;5063555;28;20197;-77
2022/11/17 06:32:07;;;;;;;3.03;1.60;;;11.00;99.90;;;;;;5072701;28;20225;-82
2022/11/17 06:34:36;;;;;;;2.43;1.57;;;11.00;99.90;;;;;;5081794;28;20221;-81
2022/11/17 06:37:04;;;;;;;2.73;1.60;;;11.10;99.90;;;;;;5087107;28;20194;-81
2022/11/17 06:39:34;;;;;;;3.70;1.30;;;11.10;99.90;;;;;;5081146;28;20210;-81
2022/11/17 06:42:02;;;;;;;4.20;1.87;;;11.00;99.90;;;;;;5088478;28;20196;-81
2022/11/17 06:44:29;;;;;;;3.13;1.73;;;11.00;99.90;;;;;;5087883;28;20221;-81
2022/11/17 06:46:57;;;;;;;3.00;1.67;;;11.00;99.90;;;;;;5084776;28;20212;-81
2022/11/17 06:49:24;;;;;;;3.97;1.80;;;11.10;99.90;;;;;;5076619;28;20200;-81
2022/11/17 06:51:52;;;;;;;1.87;1.40;;;11.10;99.90;;;;;;5077580;28;20194;-81
2022/11/17 06:54:22;;;;;;;3.07;1.70;;;11.10;99.90;;;;;;5086022;28;20210;-81
2022/11/17 06:56:52;;;;;;;4.37;1.87;;;11.10;99.90;;;;;;5079618;28;20224;-81
2022/11/17 06:59:23;;;;;;;3.43;1.77;;;11.10;99.90;;;;;;5083957;28;20205;-80
2022/11/17 07:01:52;;;;;;;3.47;1.57;;;11.10;99.90;;;;;;5086700;28;20200;-80
2022/11/17 07:04:19;;;;;;;2.20;1.50;;;11.20;99.90;;;;;;5083943;28;20209;-80
2022/11/17 07:06:48;;;;;;;3.17;1.50;;;11.30;99.90;;;;;;5082452;28;20220;-81
2022/11/17 07:09:15;;;;;;;3.53;1.77;;;11.30;99.90;;;;;;5087066;28;20193;-81
2022/11/17 07:11:43;;;;;;;2.87;1.20;;;11.20;99.90;;;;;;5087252;28;20202;-81
2022/11/17 07:14:15;;;;;;;3.60;1.50;;;11.30;99.90;;;;;;5087351;28;20232;-81
2022/11/17 07:16:42;;;;;;;3.03;1.50;;;11.30;99.90;;;;;;5079325;28;20198;-81
2022/11/17 07:19:11;;;;;;;3.73;1.30;;;11.30;99.90;;;;;;5081259;28;20202;-81
2022/11/17 07:21:50;;;;;;;2.97;1.87;;;11.20;99.90;;;;;;5080280;28;20204;-82
2022/11/17 07:24:21;;;;;;;2.90;1.20;;;11.20;99.90;;;;;;5080658;28;20244;-81
2022/11/17 07:26:48;;;;;;;1.77;1.10;;;11.20;99.90;;;;;;5079100;28;20220;-80
2022/11/17 07:29:17;;;;;;;3.53;1.87;;;11.20;99.90;;;;;;5071496;28;20202;-80
2022/11/17 07:31:44;;;;;;;1.83;1.13;;;11.30;99.90;;;;;;5085616;28;20198;-81
2022/11/17 07:34:12;;;;;;;2.77;1.27;;;11.20;99.90;;;;;;5073415;28;20233;-80
2022/11/17 07:36:39;;;;;;;4.00;1.20;;;11.30;99.90;;;;;;5074612;28;20198;-83
2022/11/17 07:39:07;;;;;;;4.03;1.13;;;11.30;99.90;;;;;;5077262;28;20193;-81
2022/11/17 07:41:35;;;;;;;3.37;1.10;;;11.30;99.90;;;;;;5072819;28;20198;-81
2022/11/17 07:44:02;;;;;;;1.40;1.17;;;11.30;99.90;;;;;;5073136;28;20226;-80
2022/11/17 07:46:31;;;;;;;3.17;1.10;;;11.30;99.90;;;;;;5077677;28;20202;-81
2022/11/17 07:48:58;;;;;;;2.47;1.60;;;11.30;99.90;;;;;;5076969;28;20207;-80
2022/11/17 07:51:26;;;;;;;2.70;1.10;;;11.30;99.90;;;;;;5077456;28;20209;-80
2022/11/17 07:53:53;;;;;;;2.77;0.80;;;11.30;99.90;;;;;;5079692;28;20209;-80
2022/11/17 07:56:21;;;;;;;2.57;1.20;;;11.30;99.90;;;;;;5079122;28;20667;-80
2022/11/17 07:58:48;;;;;;;2.17;0.97;;;11.30;99.90;;;;;;5093009;28;20202;-80
2022/11/17 08:01:17;;;;;;;2.83;1.03;;;11.30;99.90;;;;;;5082370;28;20185;-79
2022/11/17 08:03:46;;;;;;;2.13;0.60;;;11.30;99.90;;;;;;5077552;28;20201;-80
2022/11/17 08:06:15;;;;;;;4.37;1.10;;;11.30;99.90;;;;;;5082095;28;20217;-80
2022/11/17 08:08:43;;;;;;;2.83;1.10;;;11.30;99.90;;;;;;5086566;28;20212;-80
2022/11/17 08:11:12;;;;;;;1.10;0.60;;;11.30;99.90;;;;;;5086937;28;20212;-80
2022/11/17 08:13:41;;;;;;;1.47;1.00;;;11.20;99.90;;;;;;5083001;28;20223;-80
2022/11/17 08:16:10;;;;;;;2.33;0.93;;;11.20;99.90;;;;;;5080298;28;20194;-80
2022/11/17 08:18:38;;;;;;;1.30;1.07;;;11.10;99.90;;;;;;5085242;28;20202;-80
2022/11/17 08:21:09;;;;;;;1.53;1.00;;;11.10;99.90;;;;;;5082442;28;20193;-80
2022/11/17 08:23:37;;;;;;;2.33;1.07;;;11.10;99.90;;;;;;5080800;28;20208;-80
2022/11/17 08:26:06;;;;;;;2.40;1.10;;;11.20;99.90;;;;;;5076137;28;20284;-80
2022/11/17 08:28:33;;;;;;;2.77;1.20;;;11.10;99.90;;;;;;5083070;28;20204;-80
2022/11/17 08:31:01;;;;;;;1.37;1.10;;;11.10;99.90;;;;;;5080352;28;20285;-80
2022/11/17 08:33:31;;;;;;;3.10;1.30;;;11.10;99.90;;;;;;5089843;28;20215;-80
2022/11/17 08:35:59;;;;;;;4.13;1.90;;;11.10;99.90;;;;;;5065248;28;20193;-81
2022/11/17 08:38:28;;;;;;;2.83;1.93;;;11.40;99.90;;;;;;5059664;28;20205;-80
2022/11/17 08:40:56;;;;;;;0.93;0.70;;;11.60;99.90;;;;;;5050528;28;20200;-79
2022/11/17 08:43:24;;;;;;;3.60;1.10;;;11.10;99.90;;;;;;5058840;28;20701;-79
2022/11/17 08:45:51;;;;;;;3.40;1.00;;;11.00;99.90;;;;;;5057334;28;20212;-79
2022/11/17 08:48:21;;;;;;;1.37;0.80;;;10.90;99.90;;;;;;5051193;28;20208;-78
2022/11/17 08:50:49;;;;;;;3.77;1.17;;;10.80;99.90;;;;;;4992143;28;20207;-78
2022/11/17 08:53:19;;;;;;;1.90;0.83;;;10.80;99.90;;;;;;5059442;28;20216;-78
2022/11/17 08:55:48;;;;;;;0.70;0.53;;;10.90;99.90;;;;;;5054966;28;20220;-78
2022/11/17 08:58:16;;;;;;;2.60;0.80;;;11.00;99.90;;;;;;4991622;28;20200;-78
2022/11/17 09:00:44;;;;;;;1.23;0.70;;;11.00;99.90;;;;;;4978905;28;20197;-78
2022/11/17 09:03:12;;;;;;;1.37;0.80;;;11.10;99.90;;;;;;5052193;28;20208;-78
2022/11/17 09:05:40;;;;;;;1.53;0.90;;;11.10;99.90;;;;;;5060964;28;20221;-78
2022/11/17 09:08:08;;;;;;;1.00;0.67;;;11.10;99.90;;;;;;4993970;28;20196;-78
2022/11/17 09:10:37;;;;;;;1.00;0.77;;;11.10;99.90;;;;;;5055963;28;20196;-78
2022/11/17 09:13:06;;;;;;;0.80;0.70;;;11.10;99.90;;;;;;5060637;28;20196;-78
2022/11/17 09:15:36;;;;;;;2.80;1.10;;;11.10;99.90;;;;;;5057677;28;20593;-78
2022/11/17 09:18:03;;;;;;;2.57;1.37;;;11.10;99.90;;;;;;5057890;28;20203;-78
2022/11/17 09:20:31;;;;;;;3.67;1.07;;;11.10;99.90;;;;;;4992635;28;20208;-78
2022/11/17 09:23:07;;;;;;;1.53;0.70;;;11.10;99.90;;;;;;5054677;28;20212;-78
2022/11/17 09:25:35;;;;;;;2.40;0.90;;;11.00;99.90;;;;;;5055441;28;20228;-78
2022/11/17 09:28:03;;;;;;;3.40;1.10;;;11.10;99.90;;;;;;5054198;28;20217;-78
2022/11/17 09:30:32;;;;;;;2.87;1.17;;;11.10;99.90;;;;;;5059143;28;20204;-78
2022/11/17 09:32:59;;;;;;;4.00;1.13;;;11.10;99.90;;;;;;5058200;28;20193;-78
2022/11/17 09:35:27;;;;;;;1.13;0.87;;;11.10;99.90;;;;;;5050358;28;20232;-78
2022/11/17 09:37:58;;;;;;;2.03;1.30;;;11.10;99.90;;;;;;5035088;28;20198;-79
2022/11/17 09:40:27;;;;;;;2.80;1.10;;;11.10;99.90;;;;;;5039214;28;20204;-79
2022/11/17 09:42:55;;;;;;;2.33;1.00;;;11.20;99.90;;;;;;4985091;28;20199;-79
2022/11/17 09:45:28;;;;;;;3.03;1.00;;;11.20;99.90;;;;;;5062049;28;20224;-79
2022/11/17 09:48:02;;;;;;;2.60;1.27;;;11.30;99.90;;;;;;5056510;28;20219;-78
2022/11/17 09:50:34;;;;;;;1.73;0.90;;;11.30;99.90;;;;;;5063219;28;20661;-78
2022/11/17 09:53:10;;;;;;;1.90;0.87;;;11.30;99.90;;;;;;5055142;28;20601;-78
2022/11/17 09:55:40;;;;;;;2.33;1.20;;;11.30;99.90;;;;;;4991048;28;20216;-78
2022/11/17 09:58:15;;;;;;;2.97;0.93;;;11.40;99.90;;;;;;5063476;28;20188;-78
2022/11/17 10:00:47;;;;;;;2.23;1.00;;;11.40;99.90;;;;;;5043783;28;20201;-78
2022/11/17 10:03:19;;;;;;;2.73;1.20;;;11.40;99.90;;;;;;5055737;28;20209;-78
2022/11/17 10:05:47;;;;;;;2.17;0.80;;;11.40;99.90;;;;;;5059380;28;20217;-78
2022/11/17 10:08:20;;;;;;;3.23;0.87;;;11.40;99.90;;;;;;5059984;28;20581;-78
2022/11/17 10:10:49;;;;;;;3.37;0.80;;;11.40;99.90;;;;;;5063261;28;20200;-78
2022/11/17 10:13:23;;;;;;;3.07;0.87;;;11.50;99.90;;;;;;5048560;28;20209;-78
2022/11/17 10:15:55;;;;;;;2.03;0.80;;;11.50;99.90;;;;;;5054585;28;20719;-78
2022/11/17 10:18:24;;;;;;;1.63;0.70;;;11.50;99.90;;;;;;5064264;28;20201;-78
2022/11/17 10:20:52;;;;;;;1.57;0.70;;;11.50;99.90;;;;;;4981183;28;20211;-78
2022/11/17 10:23:21;;;;;;;1.77;0.70;;;11.50;99.90;;;;;;4987573;28;20197;-78
2022/11/17 10:25:56;;;;;;;1.67;0.70;;;11.60;99.90;;;;;;5059108;28;20220;-78
2022/11/17 10:28:26;;;;;;;1.73;0.90;;;11.60;99.90;;;;;;5059975;28;20224;-79
2022/11/17 10:30:56;;;;;;;2.40;0.83;;;11.70;99.90;;;;;;4990833;28;20193;-78
2022/11/17 10:33:37;;;;;;;3.50;0.87;;;11.70;99.90;;;;;;5053920;28;20658;-78
2022/11/17 10:36:13;;;;;;;3.40;1.13;;;11.70;99.90;;;;;;5053864;28;20200;-78
2022/11/17 10:39:00;;;;;;;1.47;0.80;;;11.70;99.90;;;;;;5068569;28;20654;-78
2022/11/17 10:41:36;;;;;;;2.53;1.10;;;11.70;99.90;;;;;;5056859;28;20205;-78
2022/11/17 10:44:13;;;;;;;3.03;0.77;;;11.70;99.90;;;;;;5055964;28;20212;-78
2022/11/17 10:46:54;;;;;;;1.23;1.00;;;11.80;99.90;;;;;;5062654;28;20196;-78
2022/11/17 10:49:27;;;;;;;3.87;1.43;;;11.70;99.90;;;;;;5055904;28;20200;-81
2022/11/17 10:52:14;;;;;;;5.10;1.60;;;11.80;99.90;;;;;;5075621;28;20207;-78
2022/11/17 10:54:41;;;;;;;2.63;1.00;;;11.80;99.90;;;;;;5070380;28;20221;-78
2022/11/17 10:57:16;;;;;;;3.20;1.10;;;11.90;99.90;;;;;;5056019;28;20206;-79
2022/11/17 10:59:48;;;;;;;3.73;0.80;;;11.90;99.90;;;;;;5045952;28;20200;-78
2022/11/17 11:02:27;;;;;;;1.47;0.90;;;11.90;99.90;;;;;;5053751;28;20197;-78
2022/11/17 11:05:08;;;;;;;1.43;0.80;;;12.00;99.90;;;;;;5056382;28;20719;-78
2022/11/17 11:07:36;;;;;;;1.20;0.90;;;12.10;99.90;;;;;;5071333;28;20208;-79
2022/11/17 11:10:14;;;;;;;2.10;1.10;;;12.20;99.90;;;;;;4982517;28;20193;-78
2022/11/17 11:12:45;;;;;;;1.73;0.80;;;12.20;99.90;;;;;;5067795;28;20212;-78
2022/11/17 11:15:19;;;;;;;2.20;0.77;;;12.30;99.90;;;;;;5060935;28;20235;-79
2022/11/17 11:17:47;;;;;;;1.87;1.00;;;12.40;99.90;;;;;;5057206;28;20189;-79
2022/11/17 11:20:17;;;;;;;1.60;0.63;;;12.40;99.90;;;;;;5056598;28;20213;-79
2022/11/17 11:22:55;;;;;;;2.27;0.90;;;12.40;99.90;;;;;;5051713;28;20204;-78
2022/11/17 11:25:34;;;;;;;2.03;0.80;;;12.40;99.90;;;;;;5048281;28;20236;-78
2022/11/17 11:28:16;;;;;;;1.43;0.43;;;12.40;99.90;;;;;;5056575;28;20579;-78
2022/11/17 11:30:57;;;;;;;1.00;0.70;;;12.30;99.90;;;;;;5056330;28;20204;-79
2022/11/17 11:33:33;;;;;;;1.27;0.80;;;12.30;99.90;;;;;;4986692;28;20223;-79
2022/11/17 11:36:24;;;;;;;2.83;0.80;;;12.30;99.90;;;;;;5058002;28;20639;-78
2022/11/17 11:38:57;;;;;;;1.53;0.50;;;12.40;99.90;;;;;;5060802;28;20196;-80
2022/11/17 11:41:49;;;;;;;2.60;0.70;;;12.40;99.90;;;;;;5101451;22;20535;-77
2022/11/17 11:44:31;;;;;;;1.63;0.60;;;12.40;99.90;;;;;;5066283;28;20210;-77
2022/11/17 11:47:07;;;;;;;3.23;0.53;;;12.40;99.90;;;;;;5068658;28;20204;-77
2022/11/17 11:49:40;;;;;;;1.37;0.60;;;12.50;99.90;;;;;;5089583;28;20184;-79
2022/11/17 11:52:19;;;;;;;1.90;0.57;;;12.70;99.90;;;;;;5066218;28;20197;-79
2022/11/17 11:54:51;;;;;;;1.63;0.60;;;12.80;99.90;;;;;;5073560;28;20196;-80
2022/11/17 11:57:25;;;;;;;1.47;0.57;;;12.90;99.90;;;;;;5071166;28;20201;-80
2022/11/17 11:59:58;;;;;;;3.13;0.95;;;12.90;99.90;;;;;;5071964;28;20219;-80
2022/11/17 12:02:31;;;;;;;0.65;0.40;;;12.80;99.90;;;;;;5089793;28;20193;-80
2022/11/17 12:05:12;;;;;;;2.50;0.70;;;12.70;99.90;;;;;;5091304;28;20201;-80
2022/11/17 12:07:48;;;;;;;1.97;0.63;;;12.60;99.90;;;;;;5069978;28;20214;-79
2022/11/17 12:10:23;;;;;;;1.10;0.60;;;12.60;99.90;;;;;;5086719;28;20216;-80
2022/11/17 12:12:51;;;;;;;1.67;0.70;;;12.50;99.90;;;;;;5075096;28;20203;-79
2022/11/17 12:15:36;;;;;;;4.30;0.73;;;12.40;99.90;;;;;;5073570;28;20208;-79
2022/11/17 12:18:10;;;;;;;1.43;0.70;;;12.50;99.90;;;;;;5065759;28;20197;-79
2022/11/17 12:20:54;;;;;;;3.37;0.80;;;12.50;99.90;;;;;;5089568;28;20225;-79
2022/11/17 12:24:03;;;;;;;1.60;0.67;;;12.50;99.90;;;;;;5073535;28;20205;-79
2022/11/17 12:26:32;;;;;;;1.93;0.70;;;12.50;99.90;;;;;;5086106;28;20190;-79
2022/11/17 12:29:30;;;;;;;2.83;0.60;;;12.50;99.90;;;;;;5086941;28;20201;-79
2022/11/17 12:32:00;;;;;;;1.77;0.70;;;12.50;99.90;;;;;;5084853;28;20189;-80
2022/11/17 12:34:30;;;;;;;3.57;0.63;;;12.50;99.90;;;;;;5058411;28;20212;-79
2022/11/17 12:37:20;;;;;;;1.23;0.70;;;12.50;99.90;;;;;;5077618;28;20201;-80
2022/11/17 12:39:58;;;;;;;2.50;1.27;;;12.50;99.90;;;;;;5083442;28;20237;-79
2022/11/17 12:42:25;;;;;;;0.70;0.67;;;12.40;99.90;;;;;;5104168;28;20200;-79
2022/11/17 12:44:59;;;;;;;0.70;0.40;;;12.40;99.90;;;;;;5102469;28;20197;-79
2022/11/17 12:47:28;;;;;;;2.17;0.70;;;12.40;99.90;;;;;;5083061;28;20201;-79
2022/11/17 12:50:21;;;;;;;1.43;0.73;;;12.50;99.90;;;;;;5072420;28;20235;-80
2022/11/17 12:53:23;;;;;;;1.77;0.70;;;12.40;99.90;;;;;;5081970;28;20194;-80
2022/11/17 12:56:19;;;;;;;1.55;0.60;;;12.50;99.90;;;;;;5084839;28;20669;-79
2022/11/17 12:58:58;;;;;;;1.67;0.70;;;12.50;99.90;;;;;;5070287;28;20193;-80
2022/11/17 13:01:37;;;;;;;2.67;0.70;;;12.40;99.90;;;;;;5072965;28;20216;-80
2022/11/17 13:04:13;;;;;;;2.20;0.70;;;12.40;99.90;;;;;;5071588;28;20706;-80
2022/11/17 13:07:01;;;;;;;2.40;0.60;;;12.40;99.90;;;;;;5069903;28;20204;-80
2022/11/17 13:09:30;;;;;;;1.40;0.50;;;12.40;99.90;;;;;;5073931;28;20902;-80
2022/11/17 13:12:04;;;;;;;1.37;0.50;;;12.30;99.90;;;;;;5091329;28;20201;-80
2022/11/17 13:14:32;;;;;;;1.33;1.10;;;12.30;99.90;;;;;;5071139;28;20201;-80
2022/11/17 13:17:01;;;;;;;1.57;0.67;;;12.30;99.90;;;;;;5070236;28;20204;-80
2022/11/17 13:19:35;;;;;;;2.27;0.80;;;12.20;99.90;;;;;;5074709;28;20209;-80
2022/11/17 13:22:05;;;;;;;3.93;0.80;;;12.20;99.90;;;;;;5080461;28;20200;-80
2022/11/17 13:24:34;;;;;;;3.10;0.87;;;12.20;99.90;;;;;;5077454;28;20209;-81
2022/11/17 13:27:07;;;;;;;1.83;0.70;;;12.20;99.90;;;;;;5078309;28;20208;-81
2022/11/17 13:29:34;;;;;;;1.63;0.70;;;12.20;99.90;;;;;;5073590;28;20223;-80
2022/11/17 13:32:12;;;;;;;1.93;0.70;;;12.20;99.90;;;;;;5069850;28;20197;-81
2022/11/17 13:34:49;;;;;;;0.90;0.57;;;12.10;99.90;;;;;;5074773;28;20563;-80
2022/11/17 13:37:18;;;;;;;1.23;0.40;;;12.20;99.90;;;;;;5099426;28;20189;-80
2022/11/17 13:39:58;;;;;;;3.10;0.80;;;12.10;99.90;;;;;;5097122;28;20205;-80
2022/11/17 13:42:31;;;;;;;0.83;0.53;;;12.10;99.90;;;;;;5068000;28;20197;-80
2022/11/17 13:45:14;;;;;;;2.57;0.90;;;12.10;99.90;;;;;;5077193;28;20211;-80